createdAt,value
2023-03-07T00:00:18.936Z,8.80
2023-03-07T00:02:20.384Z,8.92
2023-03-07T00:04:21.903Z,9.02
2023-03-07T00:06:23.414Z,9.11
2023-03-07T00:08:24.909Z,9.08
2023-03-07T00:10:26.523Z,8.98
2023-03-07T00:12:28.037Z,8.98
2023-03-07T00:14:29.656Z,8.89
2023-03-07T00:16:31.201Z,8.87
2023-03-07T00:18:33.130Z,8.91
2023-03-07T00:20:34.639Z,9.00
2023-03-07T00:22:36.317Z,9.07
2023-03-07T00:24:37.849Z,9.18
2023-03-07T00:26:39.891Z,9.25
2023-03-07T00:28:41.435Z,9.32
2023-03-07T00:30:42.965Z,9.35
2023-03-07T00:32:44.409Z,9.47
2023-03-07T00:34:45.870Z,9.44
2023-03-07T00:36:47.373Z,9.39
2023-03-07T00:38:49.154Z,9.42
2023-03-07T00:40:57.764Z,9.46
2023-03-07T00:42:59.197Z,9.53
2023-03-07T00:45:00.716Z,9.58
2023-03-07T00:47:02.611Z,9.58
2023-03-07T00:49:04.141Z,9.49
2023-03-07T00:51:06.625Z,9.18
2023-03-07T00:53:08.090Z,9.13
2023-03-07T00:55:09.774Z,8.98
2023-03-07T00:57:11.214Z,8.95
2023-03-07T00:59:12.659Z,8.80
2023-03-07T01:01:15.115Z,8.78
2023-03-07T01:03:16.669Z,8.68
2023-03-07T01:05:18.175Z,8.57
2023-03-07T01:07:19.726Z,8.34
2023-03-07T01:09:21.596Z,8.40
2023-03-07T01:11:23.113Z,8.17
2023-03-07T01:13:24.574Z,7.89
2023-03-07T01:15:26.254Z,7.60
2023-03-07T01:17:27.743Z,7.47
2023-03-07T01:19:29.223Z,7.64
2023-03-07T01:21:31.753Z,7.65
2023-03-07T18:29:06.984Z,12.06
2023-03-07T18:31:09.799Z,12.11
2023-03-07T18:33:11.318Z,12.13
2023-03-07T18:35:15.453Z,12.13
2023-03-07T18:37:17.087Z,12.14
2023-03-07T18:39:19.217Z,12.13
2023-03-07T18:41:21.470Z,12.08
2023-03-07T18:43:22.974Z,12.09
2023-03-07T18:45:25.613Z,12.09
2023-03-07T18:47:27.146Z,12.10
2023-03-07T18:49:28.686Z,12.10
2023-03-07T18:51:30.318Z,12.12
2023-03-07T18:53:32.311Z,12.12
2023-03-07T18:55:34.744Z,12.11
2023-03-07T18:57:36.265Z,12.03
2023-03-07T18:59:37.765Z,11.93
2023-03-07T19:01:39.752Z,11.99
2023-03-07T19:03:41.462Z,11.98
2023-03-07T19:05:43.843Z,11.97
2023-03-07T19:07:45.316Z,11.99
2023-03-07T19:09:53.214Z,11.94
2023-03-07T19:11:54.779Z,12.01
2023-03-07T19:13:56.449Z,12.00
2023-03-07T19:16:17.742Z,11.95
2023-03-07T19:18:19.255Z,11.97
2023-03-07T19:20:20.757Z,11.96
2023-03-07T19:22:25.818Z,11.91
2023-03-07T19:24:28.551Z,11.92
2023-03-07T19:26:30.107Z,11.87
2023-03-07T19:28:31.635Z,11.87
2023-03-07T19:30:35.494Z,11.89
2023-03-07T19:32:37.097Z,11.88
2023-03-07T19:34:38.594Z,11.90
2023-03-07T19:36:41.582Z,11.85
2023-03-07T19:38:43.314Z,11.86
2023-03-07T19:40:47.683Z,11.82
2023-03-07T19:42:49.219Z,11.81
2023-03-07T19:44:50.666Z,11.80
2023-03-07T19:46:52.942Z,11.80
2023-03-07T19:48:54.481Z,11.78
2023-03-07T19:50:56.006Z,11.78
2023-03-07T19:52:59.205Z,11.77
2023-03-07T19:55:00.721Z,11.79
2023-03-07T19:57:02.198Z,11.81
2023-03-07T19:59:05.185Z,11.76
2023-03-07T20:01:10.517Z,11.73
2023-03-07T20:03:16.004Z,11.73
2023-03-07T20:05:17.566Z,11.73
2023-03-07T20:07:19.071Z,11.72
2023-03-07T20:09:20.554Z,11.71
2023-03-07T20:11:25.673Z,11.70
2023-03-07T20:13:28.279Z,11.76
2023-03-07T20:15:29.838Z,11.75
2023-03-07T20:17:31.507Z,11.76
2023-03-07T20:19:33.088Z,11.73
2023-03-07T20:21:35.793Z,11.75
2023-03-07T20:23:37.265Z,11.75
2023-03-07T20:25:38.803Z,11.75
2023-03-07T20:27:41.229Z,11.78
2023-03-07T20:29:42.724Z,11.78
2023-03-07T20:31:44.391Z,11.75
2023-03-07T20:33:46.366Z,11.76
2023-03-07T20:35:47.868Z,11.56
2023-03-07T20:37:49.381Z,11.42
2023-03-07T20:39:50.863Z,11.17
2023-03-07T20:41:52.322Z,10.90
2023-03-07T20:43:54.028Z,10.73
2023-03-07T20:45:55.695Z,10.66
2023-03-07T20:47:57.188Z,10.41
2023-03-07T20:49:58.685Z,10.30
2023-03-07T20:52:00.182Z,10.19
2023-03-07T20:54:09.019Z,10.22
2023-03-07T20:56:10.517Z,10.32
2023-03-07T20:58:12.175Z,10.37
2023-03-07T21:00:13.952Z,10.44
2023-03-07T21:02:15.417Z,10.34
2023-03-07T21:04:18.626Z,10.05
2023-03-07T21:06:20.206Z,9.90
2023-03-07T21:08:22.865Z,9.91
2023-03-07T21:10:25.179Z,10.02
2023-03-07T21:12:26.680Z,10.17
2023-03-07T21:14:28.118Z,10.10
2023-03-07T21:16:30.851Z,10.16
2023-03-07T21:18:32.649Z,10.23
2023-03-07T21:20:34.324Z,10.32
2023-03-07T21:22:35.738Z,10.28
2023-03-07T21:24:37.254Z,10.31
2023-03-07T21:26:39.019Z,10.01
2023-03-07T21:28:40.525Z,10.05
2023-03-07T21:30:42.810Z,10.14
2023-03-07T21:32:44.412Z,10.24
2023-03-07T21:34:45.906Z,10.34
2023-03-07T21:36:48.039Z,10.40
2023-03-07T21:38:49.773Z,10.36
2023-03-07T21:40:51.379Z,10.32
2023-03-07T21:42:52.905Z,10.29
2023-03-07T21:44:54.368Z,10.19
2023-03-07T21:46:55.928Z,10.03
2023-03-07T21:49:00.212Z,9.84
2023-03-07T21:51:01.815Z,9.75
2023-03-07T21:53:03.464Z,9.73
2023-03-07T21:55:05.099Z,9.71
2023-03-07T21:57:06.903Z,9.71
2023-03-07T21:59:08.390Z,9.79
2023-03-07T22:01:11.841Z,9.86
2023-03-07T22:03:13.312Z,9.95
2023-03-07T22:05:14.753Z,10.03
2023-03-07T22:07:16.286Z,10.01
2023-03-07T22:09:19.861Z,10.03
2023-03-07T22:11:21.348Z,10.02
2023-03-07T22:13:22.898Z,10.02
2023-03-07T22:15:24.327Z,10.07
2023-03-07T22:17:26.273Z,10.10
2023-03-07T22:19:27.768Z,10.10
2023-03-07T22:21:29.236Z,9.97
2023-03-07T22:23:31.022Z,9.92
2023-03-07T22:25:33.505Z,9.90
2023-03-07T22:27:36.212Z,9.93
2023-03-07T22:29:37.728Z,9.97
2023-03-07T22:31:39.181Z,10.01
2023-03-07T22:33:41.179Z,9.93
2023-03-07T22:35:42.804Z,9.95
2023-03-07T22:37:44.461Z,9.98
2023-03-07T22:39:45.958Z,9.77
2023-03-07T22:41:47.435Z,9.53
2023-03-07T22:43:48.999Z,9.52
2023-03-07T22:45:53.198Z,9.58
2023-03-07T22:47:55.008Z,9.67
2023-03-07T22:49:56.666Z,9.72
2023-03-07T22:51:58.136Z,9.77
2023-03-07T22:53:59.585Z,9.67
2023-03-07T22:56:01.533Z,9.58
2023-03-07T22:58:03.372Z,9.59
2023-03-07T23:00:05.277Z,9.48
2023-03-07T23:02:06.775Z,9.42
2023-03-07T23:04:08.543Z,9.43
2023-03-07T23:06:10.078Z,9.54
2023-03-07T23:08:11.553Z,9.59
2023-03-07T23:10:13.187Z,9.57
2023-03-07T23:12:14.691Z,9.53
2023-03-07T23:14:16.327Z,9.50
2023-03-07T23:16:18.680Z,9.56
2023-03-07T23:18:20.276Z,9.42
2023-03-07T23:20:25.487Z,9.32
2023-03-07T23:22:27.048Z,9.16
2023-03-07T23:24:28.618Z,9.05
2023-03-07T23:26:31.033Z,9.04
2023-03-07T23:28:32.540Z,9.11
2023-03-07T23:30:37.468Z,9.15
2023-03-07T23:32:38.996Z,9.21
2023-03-07T23:34:40.445Z,9.24
2023-03-07T23:36:42.042Z,9.31
2023-03-07T23:38:44.354Z,9.34
2023-03-07T23:40:45.809Z,9.36
2023-03-07T23:42:47.345Z,9.38
2023-03-07T23:44:48.976Z,9.28
2023-03-07T23:46:50.594Z,9.20
2023-03-07T23:48:52.133Z,9.07
2023-03-07T23:50:53.675Z,8.88
2023-03-07T23:52:55.158Z,8.91
2023-03-07T23:54:56.638Z,8.97
2023-03-07T23:56:58.156Z,9.04
2023-03-07T23:58:59.639Z,9.08
